LFOA 210400Z AUTO 03008KT 9999 OVC013 01/M00 Q1034

ElémentsDécodage
LFOA Station météo située sur l'aérodrome de AVORD
210400Z émis le 21 du mois à 04h00 UTC
AUTO Bulletin édité par un automate
03008KT vent du 030°, 08 noeuds
9999 visibilité horizontale supérieure à 10 Km
OVC013 couverture nuageuse totale (8/8) à 1300 pieds
01/M00 température 01°C, point de rosée 00°C
 soit une humidité relative de 93%
Q1034 la pression au niveau de la mer (QNH) est de 1034 hPa